Webcam Meteoipassi more information Webcam Meteoipassi


altri nostri siti meteo:

Pomeziameteo 1Sito sul meteo

MeteopomeziaSito sul meteo

Pomeziameteo DashboardSito sul meteo

Caput FrigorisSito sul meteo

BarcellonameteoSito sul meteo

ViterbometeoSito sul meteo

MeteotortoretoSito sul meteo

TortoretometeolidoSito sul meteo

MeteoGonzagaSito sul meteo



Fog From: 04-03-2021 19:00 Until: 05-03-2021 00:59 warning for: Fog Level: Yellow info button

Notice: Undefined offset: 6 in /web/htdocs/www.meteoipassi.it/home/weather28/metar/metarDisplay.php on line 75

Notice: Undefined offset: 5 in /web/htdocs/www.meteoipassi.it/home/weather28/metar/metarDisplay.php on line 75

Report METAR

   
LIRQ - Firenze
Dati ricevuti: Mar 3 2021 5:50 pm
DATI Obsoleti
Sereno  
Sereno  
   Vento: Variabile calma
Vento: Variabile calma
Visibilita: oltre 10 km
dettagli cloud: Sereno
LIRQ 031650Z /////KT CAVOK Q////
LIRP - Lucca
Dati ricevuti: Mar 4 2021 6:15 am
Sereno  
Sereno  
   Vento: SE 9.3 km/h
Vento: SE 9.3 km/h
Temperatura: 3°C
Temperatura Vento: 1°C
P.to Rugiada: 3°C
Umidita: 100%
Barometro: 1026 hPa
Visibilita: oltre 10 km
dettagli cloud: Sereno
LIRP 040515Z 12005KT CAVOK 03/03 Q1026 NOSIG
LIPE - Bologna
Dati ricevuti: Mar 4 2021 6:20 am
Sereno  
Sereno  
   Vento: W 5.6 km/h
Vento: W 5.6 km/h
Temperatura: 4°C
Temperatura Vento: 3°C
P.to Rugiada: 0°C
Umidita: 75%
Barometro: 1024 hPa
Visibilita: oltre 10 km
dettagli cloud: Sereno
LIPE 040520Z 24003KT CAVOK 04/00 Q1024
LIMP - Parma
Dati ricevuti: Mar 3 2021 10:50 pm
DATI Obsoleti
Parzialmente nuvoloso  
Parzialmente nuvoloso  
   Vento: S 5.6 km/h
Vento: S 5.6 km/h
Temperatura: 6°C
Temperatura Vento: 5°C
P.to Rugiada: 2°C
Umidita: 76%
Barometro: 1028 hPa
Nuvole: Parzialmente nuvoloso
Visibilita: 6 km
dettagli cloud: Parzialmente nuvoloso
LIMP 032150Z 21003KT 6000 NSC 06/02 Q1028
  

Script sviluppato da  Saratoga-weather.org Adattato per il modello da  Weerstation Leuven

Potete trovare le nostre info meteo anche a:

European Weather Network

Weather Underground

AWEKAS

HAMweather, WeatherForYou, PWS Weather

Strumentazione usata:

Stazione meteo
Davis Vantage Vue

Programma gestore dati meteo
WVIEW

Server per i dati meteo
WDS-5

Provider
Anemos WDS-5

Davis Vantage Vue

WVIEW

WDS-5

Anemos WDS-5